Latest Weather Observations for Legendre Island

IDW60801

Issued at 1:03 am WST Sunday 30 April 2017 (issued every 30 minutes, with the page automatically refreshed every 10 minutes)

About weather observations | Map of weather stations | Latest weather observations for WA | Other Formats
Station Details ID: 004095 Name: LEGENDRE ISLAND Lat: -20.36 Lon: 116.84 Height: 29.0 m
Data from the previous 72 hours. | See also: Recent months at Legendre Island
Date/Time
WST
Temp
°C
App
Temp
°C
Dew
Point
°C
Rel
Hum
%
Delta-T
°C
Wind Press
QNH
hPa
Press
MSL
hPa
Rain since
9am
mm
Dir  Spd
km/h
Gust
km/h
Spd
kts
Gust
kts
30/01:00am - - - - - SSE 13 15 7 8 1016.0 1015.8 -
30/12:30am - - - - - NW 4 4 2 2 1016.1 1015.9 -
30/12:00am - - - - - NW 4 6 2 3 1016.0 1015.8 -
 
Date/Time
WST
Temp
°C
App
Temp
°C
Dew
Point
°C
Rel
Hum
%
Delta-T
°C
Wind Press
QNH
hPa
Press
MSL
hPa
Rain since
9am
mm
Dir  Spd
km/h
Gust
km/h
Spd
kts
Gust
kts
29/11:30pm - - - - - NNW 6 6 3 3 1016.0 1015.8 -
29/11:00pm - - - - - N 11 13 6 7 1016.0 1015.8 -
29/10:30pm - - - - - N 13 15 7 8 1015.9 1015.7 -
29/10:00pm - - - - - N 15 19 8 10 1015.9 1015.7 -
29/09:30pm - - - - - N 19 22 10 12 1015.9 1015.7 -
29/09:00pm - - - - - N 19 22 10 12 1015.7 1015.5 -
29/08:30pm - - - - - N 20 24 11 13 1015.6 1015.4 -
29/08:00pm - - - - - N 20 22 11 12 1015.5 1015.3 -
29/07:30pm - - - - - NNE 20 22 11 12 1015.1 1015.0 -
29/07:00pm - - - - - NNE 20 22 11 12 1015.0 1014.9 -
29/06:30pm - - - - - NNE 19 22 10 12 1014.8 1014.7 -
29/06:00pm - - - - - NNE 19 20 10 11 1014.7 1014.6 -
29/05:30pm - - - - - NNE 17 20 9 11 1014.5 1014.4 -
29/05:00pm - - - - - NE 17 20 9 11 1014.4 1014.3 -
29/04:30pm - - - - - NE 19 24 10 13 1014.2 1014.1 -
29/04:00pm - - - - - ENE 20 24 11 13 1014.2 1014.1 -
29/03:30pm - - - - - ENE 20 24 11 13 1014.3 1014.2 -
29/03:00pm - - - - - ENE 26 30 14 16 1014.3 1014.2 -
29/02:30pm - - - - - ENE 26 30 14 16 1014.3 1014.2 -
29/02:00pm - - - - - E 26 32 14 17 1014.3 1014.2 -
29/01:30pm - - - - - ENE 26 30 14 16 1014.4 1014.3 -
29/01:00pm - - - - - E 30 35 16 19 1014.7 1014.6 -
29/12:30pm - - - - - E 30 35 16 19 1015.1 1015.0 -
29/12:00pm - - - - - E 32 37 17 20 1015.3 1015.2 -
29/11:30am - - - - - E 32 35 17 19 1015.7 1015.5 -
29/11:00am - - - - - E 32 39 17 21 1015.9 1015.7 -
29/10:30am - - - - - E 35 41 19 22 1016.0 1015.8 -
29/10:00am - - - - - E 35 41 19 22 1016.1 1015.9 -
29/09:30am - - - - - E 33 39 18 21 1016.1 1015.9 -
29/09:00am - - - - - E 33 41 18 22 1015.9 1015.7 -
29/08:30am - - - - - E 33 37 18 20 1015.7 1015.5 -
29/08:00am - - - - - E 32 37 17 20 1015.6 1015.4 -
29/07:30am - - - - - ESE 28 33 15 18 1015.6 1015.4 -
29/07:00am - - - - - ESE 20 26 11 14 1015.3 1015.2 -
29/06:30am - - - - - SE 24 28 13 15 1015.1 1015.0 -
29/06:00am - - - - - SE 22 28 12 15 1014.9 1014.8 -
29/05:30am - - - - - SE 20 24 11 13 1014.9 1014.8 -
29/05:00am - - - - - SE 20 26 11 14 1014.8 1014.7 -
29/04:30am - - - - - SE 20 24 11 13 1014.8 1014.7 -
29/04:00am - - - - - SE 22 26 12 14 1014.6 1014.5 -
29/03:30am - - - - - SE 20 24 11 13 1014.4 1014.3 -
29/03:00am - - - - - SE 22 28 12 15 1014.5 1014.4 -
29/02:30am - - - - - ESE 24 28 13 15 1014.7 1014.6 -
29/02:00am - - - - - SE 20 22 11 12 1015.0 1014.9 -
29/01:30am - - - - - SSE 19 22 10 12 1015.0 1014.9 -
29/01:00am - - - - - SSE 15 19 8 10 1015.2 1015.1 -
29/12:30am - - - - - S 17 19 9 10 1015.5 1015.3 -
29/12:00am - - - - - SSE 15 15 8 8 1015.6 1015.4 -
 
Date/Time
WST
Temp
°C
App
Temp
°C
Dew
Point
°C
Rel
Hum
%
Delta-T
°C
Wind Press
QNH
hPa
Press
MSL
hPa
Rain since
9am
mm
Dir  Spd
km/h
Gust
km/h
Spd
kts
Gust
kts
28/11:30pm - - - - - S 13 17 7 9 1015.7 1015.5 -
28/11:00pm - - - - - S 13 15 7 8 1015.6 1015.4 -
28/10:30pm - - - - - S 17 19 9 10 1015.8 1015.6 -
28/10:00pm - - - - - SSW 15 17 8 9 1015.9 1015.7 -
28/09:30pm - - - - - NNE 6 7 3 4 1015.7 1015.5 -
28/09:00pm - - - - - NNE 13 15 7 8 1015.6 1015.4 -
28/08:30pm - - - - - NNE 13 15 7 8 1015.5 1015.3 -
28/08:00pm - - - - - NNE 13 15 7 8 1015.1 1015.0 -
28/07:30pm - - - - - NNE 15 17 8 9 1015.0 1014.9 -
28/07:00pm - - - - - NNE 13 17 7 9 1015.0 1014.9 -
28/06:30pm - - - - - NE 15 15 8 8 1014.8 1014.7 -
28/06:00pm - - - - - NE 13 17 7 9 1014.5 1014.4 -
28/05:30pm - - - - - NE 15 17 8 9 1014.4 1014.3 -
28/05:00pm - - - - - NE 17 20 9 11 1014.4 1014.3 -
28/04:30pm - - - - - ENE 19 20 10 11 1014.4 1014.3 -
28/04:00pm - - - - - ENE 20 22 11 12 1014.2 1014.1 -
28/03:30pm - - - - - E 22 24 12 13 1014.2 1014.1 -
28/03:00pm - - - - - E 24 26 13 14 1014.3 1014.2 -
28/02:30pm - - - - - E 24 28 13 15 1014.5 1014.4 -
28/02:00pm - - - - - E 24 30 13 16 1014.7 1014.6 -
28/01:30pm - - - - - E 26 30 14 16 1014.8 1014.7 -
28/01:00pm - - - - - ESE 24 28 13 15 1015.3 1015.2 -
28/12:30pm - - - - - ESE 26 32 14 17 1015.8 1015.6 -
28/12:00pm - - - - - ESE 26 32 14 17 1016.2 1016.0 -
28/11:30am - - - - - ESE 28 33 15 18 1016.7 1016.5 -
28/11:00am - - - - - ESE 28 33 15 18 1017.1 1016.9 -
28/10:30am - - - - - ESE 30 35 16 19 1017.5 1017.3 -
28/10:00am - - - - - ESE 32 39 17 21 1017.6 1017.4 -
28/09:30am - - - - - ESE 32 39 17 21 1017.7 1017.5 -
28/09:00am - - - - - ESE 33 37 18 20 1017.5 1017.3 -
28/08:30am - - - - - ESE 33 39 18 21 1017.5 1017.3 -
28/08:00am - - - - - SE 26 33 14 18 1017.4 1017.2 -
28/07:30am - - - - - SE 28 33 15 18 1017.2 1017.0 -
28/07:00am - - - - - SE 26 33 14 18 1017.0 1016.8 -
28/06:30am - - - - - SE 26 33 14 18 1016.7 1016.5 -
28/06:00am - - - - - SE 28 35 15 19 1016.4 1016.2 -
28/05:30am - - - - - SE 24 32 13 17 1016.3 1016.1 -
28/05:00am - - - - - SE 22 26 12 14 1016.1 1015.9 -
28/04:30am - - - - - SE 22 28 12 15 1015.9 1015.7 -
28/04:00am - - - - - SE 26 32 14 17 1015.9 1015.7 -
28/03:30am - - - - - SE 26 32 14 17 1015.9 1015.7 -
28/03:00am - - - - - ESE 26 32 14 17 1015.8 1015.6 -
28/02:30am - - - - - SE 24 32 13 17 1015.9 1015.7 -
28/02:00am - - - - - SE 24 28 13 15 1016.0 1015.8 -
28/01:30am - - - - - SE 22 28 12 15 1016.1 1015.9 -
28/01:00am - - - - - SE 22 28 12 15 1016.2 1016.0 -
28/12:30am - - - - - SE 20 26 11 14 1016.2 1016.0 -
28/12:00am - - - - - SE 20 24 11 13 1016.2 1016.0 -
 
Date/Time
WST
Temp
°C
App
Temp
°C
Dew
Point
°C
Rel
Hum
%
Delta-T
°C
Wind Press
QNH
hPa
Press
MSL
hPa
Rain since
9am
mm
Dir  Spd
km/h
Gust
km/h
Spd
kts
Gust
kts
27/11:30pm - - - - - SSE 17 22 9 12 1016.4 1016.2 -
27/11:00pm - - - - - S 17 19 9 10 1016.5 1016.3 -
27/10:30pm - - - - - S 15 17 8 9 1016.5 1016.3 -
27/10:00pm - - - - - S 15 19 8 10 1016.5 1016.3 -
27/09:30pm - - - - - E 15 17 8 9 1016.3 1016.1 -
27/09:00pm - - - - - ENE 13 17 7 9 1016.0 1015.8 -
27/08:30pm - - - - - ENE 13 15 7 8 1015.9 1015.7 -
27/08:00pm - - - - - NE 13 15 7 8 1015.6 1015.4 -
27/07:30pm - - - - - NE 15 17 8 9 1015.3 1015.2 -
27/07:00pm - - - - - NE 17 20 9 11 1014.9 1014.8 -
27/06:30pm - - - - - NE 17 19 9 10 1014.8 1014.7 -
27/06:00pm - - - - - NE 19 22 10 12 1014.6 1014.5 -
27/05:30pm - - - - - ENE 19 22 10 12 1014.3 1014.2 -
27/05:00pm - - - - - ENE 20 24 11 13 1014.2 1014.1 -
27/04:30pm - - - - - ENE 22 24 12 13 1014.1 1014.0 -
27/04:00pm - - - - - ENE 22 26 12 14 1014.2 1014.1 -
27/03:30pm - - - - - E 22 26 12 14 1014.3 1014.2 -
27/03:00pm - - - - - E 22 28 12 15 1014.4 1014.3 -
27/02:30pm - - - - - E 24 30 13 16 1014.5 1014.4 -
27/02:00pm - - - - - E 28 32 15 17 1014.8 1014.7 -
27/01:30pm - - - - - E 30 33 16 18 1014.9 1014.8 -
27/01:00pm - - - - - ESE 28 35 15 19 1015.5 1015.3 -
27/12:30pm - - - - - ESE 32 37 17 20 1015.9 1015.7 -
27/12:00pm - - - - - E 30 35 16 19 1016.5 1016.3 -
27/11:30am - - - - - ESE 32 37 17 20 1016.8 1016.6 -
27/11:00am - - - - - ESE 33 41 18 22 1017.3 1017.1 -
27/10:30am - - - - - ESE 35 43 19 23 1017.6 1017.4 -
27/10:00am - - - - - ESE 39 46 21 25 1017.6 1017.4 -
27/09:30am - - - - - ESE 37 48 20 26 1017.6 1017.4 -
27/09:00am - - - - - ESE 39 46 21 25 1017.3 1017.1 -
27/08:30am - - - - - ESE 37 44 20 24 1017.2 1017.0 -
27/08:00am - - - - - ESE 33 43 18 23 1017.1 1016.9 -
27/07:30am - - - - - ESE 32 41 17 22 1016.8 1016.6 -
27/07:00am - - - - - ESE 32 43 17 23 1016.6 1016.4 -
27/06:30am - - - - - ESE 32 41 17 22 1016.3 1016.1 -
27/06:00am - - - - - ESE 32 41 17 22 1015.8 1015.6 -
27/05:30am - - - - - ESE 33 43 18 23 1015.6 1015.4 -
27/05:00am - - - - - ESE 35 48 19 26 1015.2 1015.1 -
27/04:30am - - - - - ESE 37 46 20 25 1015.2 1015.1 -
27/04:00am - - - - - ESE 33 43 18 23 1015.3 1015.2 -
27/03:30am - - - - - ESE 37 46 20 25 1015.3 1015.2 -
27/03:00am - - - - - ESE 39 48 21 26 1015.6 1015.4 -
27/02:30am - - - - - ESE 33 43 18 23 1015.8 1015.6 -
27/02:00am - - - - - ESE 37 46 20 25 1015.9 1015.7 -
27/01:30am - - - - - SE 33 43 18 23 1016.0 1015.8 -

Other Formats:

Comma delimited format used in spreadsheet applications
http://www.bom.gov.au/fwo/IDW60801/IDW60801.94307.axf

JavaScript Object Notation format (JSON) in row-major order
http://www.bom.gov.au/fwo/IDW60801/IDW60801.94307.json